createdAt,value
2018-03-31T00:01:36.274Z,3.50
2018-03-31T00:06:29.116Z,3.37
2018-03-31T00:11:22.251Z,2.93
2018-03-31T00:16:15.324Z,3.27
2018-03-31T00:21:08.169Z,3.77
2018-03-31T00:26:01.309Z,3.20
2018-03-31T00:30:54.906Z,3.10
2018-03-31T00:35:48.837Z,3.87
2018-03-31T00:40:41.711Z,3.77
2018-03-31T00:45:34.516Z,3.60
2018-03-31T00:50:28.108Z,3.67
2018-03-31T00:55:21.698Z,4.03
2018-03-31T01:00:15.298Z,4.37
2018-03-31T01:05:08.117Z,3.80
2018-03-31T01:10:00.972Z,4.57
2018-03-31T01:14:53.824Z,4.60
2018-03-31T01:19:46.650Z,5.73
2018-03-31T01:24:40.334Z,5.57
2018-03-31T01:29:33.929Z,4.97
2018-03-31T01:34:26.762Z,6.03
2018-03-31T01:39:19.584Z,6.23
2018-03-31T01:44:12.396Z,5.23
2018-03-31T01:49:05.227Z,5.47
2018-03-31T01:53:58.055Z,5.70
2018-03-31T01:58:52.077Z,6.43
2018-03-31T02:03:44.892Z,6.83
2018-03-31T02:08:37.722Z,5.80
2018-03-31T02:13:30.546Z,5.97
2018-03-31T02:18:24.163Z,5.80
2018-03-31T02:23:16.998Z,6.80
2018-03-31T02:28:10.604Z,6.60
2018-03-31T02:33:03.421Z,6.37
2018-03-31T02:37:56.294Z,6.47
2018-03-31T02:42:49.131Z,6.70
2018-03-31T02:47:42.137Z,6.97
2018-03-31T02:52:34.956Z,6.63
2018-03-31T02:57:27.559Z,6.87
2018-03-31T03:02:20.405Z,8.30
2018-03-31T03:07:13.243Z,7.83
2018-03-31T03:12:06.074Z,7.70
2018-03-31T03:16:59.664Z,9.40
2018-03-31T03:21:53.247Z,8.17
2018-03-31T03:26:46.860Z,8.13
2018-03-31T03:31:39.698Z,9.47
2018-03-31T03:36:33.310Z,10.53
2018-03-31T03:41:26.138Z,10.07
2018-03-31T03:46:19.743Z,10.67
2018-03-31T03:51:12.570Z,10.07
2018-03-31T03:56:05.446Z,9.07
2018-03-31T04:00:58.287Z,8.97
2018-03-31T04:05:51.129Z,8.63
2018-03-31T04:10:43.969Z,9.47
2018-03-31T04:15:37.393Z,9.57
2018-03-31T04:20:30.239Z,9.63
2018-03-31T04:25:23.218Z,9.70
2018-03-31T04:30:16.061Z,9.03
2018-03-31T04:35:08.897Z,9.37
2018-03-31T04:40:01.740Z,10.80
2018-03-31T04:44:54.758Z,9.93
2018-03-31T04:49:48.370Z,10.80
2018-03-31T04:54:41.231Z,11.57
2018-03-31T04:59:34.122Z,11.23
2018-03-31T05:04:26.738Z,10.83
2018-03-31T05:09:20.357Z,11.97
2018-03-31T05:14:12.954Z,11.77
2018-03-31T05:19:06.469Z,11.40
2018-03-31T05:23:59.317Z,10.73
2018-03-31T05:28:52.707Z,11.23
2018-03-31T05:33:46.314Z,11.60
2018-03-31T05:38:39.162Z,10.80
2018-03-31T05:43:32.766Z,11.03
2018-03-31T05:48:25.600Z,10.47
2018-03-31T05:53:19.207Z,10.60
2018-03-31T05:58:12.039Z,9.27
2018-03-31T06:03:04.879Z,9.07
2018-03-31T06:07:57.728Z,8.50
2018-03-31T06:12:50.570Z,9.50
2018-03-31T06:17:43.404Z,8.57
2018-03-31T06:22:36.229Z,9.10
2018-03-31T06:27:29.091Z,8.13
2018-03-31T06:32:21.684Z,6.67
2018-03-31T06:37:14.542Z,7.07
2018-03-31T06:42:07.392Z,7.13
2018-03-31T06:47:00.246Z,6.83
2018-03-31T06:51:53.874Z,6.30
2018-03-31T06:56:46.498Z,6.67
2018-03-31T07:01:39.373Z,5.23
2018-03-31T07:06:32.224Z,5.13
2018-03-31T07:11:26.757Z,5.23
2018-03-31T07:16:19.720Z,4.60
2018-03-31T07:21:12.652Z,4.50
2018-03-31T07:26:05.517Z,4.60
2018-03-31T07:30:59.135Z,4.10
2018-03-31T07:35:51.996Z,4.37
2018-03-31T07:40:45.057Z,4.40
2018-03-31T07:45:38.033Z,5.00
2018-03-31T07:50:31.114Z,5.27
2018-03-31T07:55:24.093Z,4.60
2018-03-31T08:00:17.369Z,4.83
2018-03-31T08:05:10.204Z,4.30
2018-03-31T08:10:03.095Z,4.60
2018-03-31T08:14:55.926Z,4.20
2018-03-31T08:19:49.566Z,4.20
2018-03-31T08:24:42.601Z,3.67
2018-03-31T08:29:35.465Z,3.63
2018-03-31T08:34:29.258Z,3.50
2018-03-31T08:39:22.101Z,4.60
2018-03-31T08:44:15.270Z,3.97
2018-03-31T08:49:08.406Z,3.87
2018-03-31T08:54:01.721Z,3.77
2018-03-31T08:58:55.191Z,3.23
2018-03-31T09:03:48.290Z,3.30
2018-03-31T09:08:41.399Z,3.33
2018-03-31T09:13:35.318Z,3.50
2018-03-31T09:18:28.494Z,3.20
2018-03-31T09:23:21.601Z,2.97
2018-03-31T09:28:14.723Z,2.60
2018-03-31T09:33:07.852Z,2.40
2018-03-31T09:38:01.016Z,2.10
2018-03-31T09:42:54.137Z,1.67
2018-03-31T09:47:47.309Z,2.37
2018-03-31T09:52:40.450Z,1.63
2018-03-31T09:57:33.570Z,1.37
2018-03-31T10:02:26.686Z,1.77
2018-03-31T10:07:19.816Z,1.70
2018-03-31T10:12:12.685Z,1.77
2018-03-31T10:17:05.575Z,1.70
2018-03-31T10:21:59.201Z,1.70
2018-03-31T10:26:52.061Z,1.90
2018-03-31T10:31:44.894Z,1.80
2018-03-31T10:36:37.743Z,1.87
2018-03-31T10:41:30.956Z,2.90
2018-03-31T10:46:24.639Z,1.90
2018-03-31T10:51:17.654Z,2.00
2018-03-31T10:56:10.483Z,1.90
2018-03-31T11:01:03.376Z,2.03
2018-03-31T11:05:56.262Z,2.20
2018-03-31T11:10:49.106Z,1.90
2018-03-31T11:15:42.112Z,1.30
2018-03-31T11:20:35.129Z,1.60
2018-03-31T11:25:27.980Z,1.40
2018-03-31T11:30:21.600Z,1.13
2018-03-31T11:35:14.468Z,1.57
2018-03-31T11:40:07.340Z,1.20
2018-03-31T11:45:00.208Z,1.40
2018-03-31T11:49:53.073Z,1.30
2018-03-31T11:54:45.934Z,1.30
2018-03-31T11:59:38.789Z,1.47
2018-03-31T12:04:31.656Z,1.70
2018-03-31T12:09:24.472Z,1.70
2018-03-31T12:14:17.330Z,1.57
2018-03-31T12:19:10.213Z,1.53
2018-03-31T12:24:03.069Z,1.90
2018-03-31T12:28:55.945Z,2.87
2018-03-31T12:33:48.784Z,2.10
2018-03-31T12:38:41.654Z,2.10
2018-03-31T12:43:34.533Z,2.20
2018-03-31T12:48:27.615Z,2.67
2018-03-31T12:53:20.621Z,2.73
2018-03-31T12:58:13.485Z,2.90
2018-03-31T13:03:07.089Z,3.33
2018-03-31T13:07:59.974Z,3.40
2018-03-31T13:12:52.878Z,3.10
2018-03-31T13:17:45.729Z,2.30
2018-03-31T13:22:38.654Z,2.20
2018-03-31T13:27:31.544Z,2.50
2018-03-31T13:32:24.411Z,2.00
2018-03-31T13:37:17.272Z,2.40
2018-03-31T13:42:09.902Z,1.90
2018-03-31T13:47:03.538Z,1.90
2018-03-31T13:51:56.392Z,2.07
2018-03-31T13:56:49.266Z,2.17
2018-03-31T14:01:42.142Z,1.80
2018-03-31T14:06:34.970Z,1.70
2018-03-31T14:11:27.864Z,1.80
2018-03-31T14:16:20.736Z,2.00
2018-03-31T14:21:13.593Z,2.10
2018-03-31T14:26:06.460Z,2.13
2018-03-31T14:30:59.324Z,1.87
2018-03-31T14:35:52.197Z,1.90
2018-03-31T14:40:45.090Z,2.00
2018-03-31T14:45:37.952Z,1.97
2018-03-31T14:50:30.886Z,2.33
2018-03-31T14:55:23.820Z,2.23
2018-03-31T15:00:16.811Z,1.90
2018-03-31T15:05:09.688Z,1.77
2018-03-31T15:10:02.374Z,1.90
2018-03-31T15:14:55.240Z,1.97
2018-03-31T15:19:48.187Z,1.90
2018-03-31T15:24:41.053Z,2.47
2018-03-31T15:29:34.861Z,1.90
2018-03-31T15:34:27.700Z,1.67
2018-03-31T15:39:20.561Z,1.40
2018-03-31T15:44:14.179Z,1.60
2018-03-31T15:49:07.017Z,1.70
2018-03-31T15:53:59.859Z,1.70
2018-03-31T15:58:52.748Z,1.60
2018-03-31T16:03:46.345Z,2.17
2018-03-31T16:08:39.211Z,2.00
2018-03-31T16:13:32.104Z,2.20
2018-03-31T16:18:25.216Z,1.57
2018-03-31T16:23:19.575Z,1.90
2018-03-31T16:28:12.413Z,1.70
2018-03-31T16:33:05.266Z,1.60
2018-03-31T16:37:58.860Z,1.67
2018-03-31T16:42:52.480Z,1.57
2018-03-31T16:47:45.350Z,1.83
2018-03-31T16:52:38.225Z,1.70
2018-03-31T16:57:30.843Z,1.60
2018-03-31T17:02:24.472Z,1.83
2018-03-31T17:07:17.554Z,1.80
2018-03-31T17:12:10.398Z,1.93
2018-03-31T17:17:03.024Z,1.90
2018-03-31T17:21:56.655Z,2.07
2018-03-31T17:26:49.508Z,1.80
2018-03-31T17:31:42.381Z,1.63
2018-03-31T17:36:35.447Z,2.40
2018-03-31T17:41:28.478Z,1.90
2018-03-31T17:46:22.109Z,1.70
2018-03-31T17:51:14.972Z,1.70
2018-03-31T17:56:07.828Z,2.13
2018-03-31T18:01:00.703Z,2.00
2018-03-31T18:05:54.505Z,1.90
2018-03-31T18:10:47.371Z,2.60
2018-03-31T18:15:40.386Z,2.10
2018-03-31T18:20:33.552Z,1.93
2018-03-31T18:25:26.397Z,2.73
2018-03-31T18:30:19.361Z,2.17
2018-03-31T18:35:12.241Z,2.40
2018-03-31T18:40:06.588Z,2.30
2018-03-31T18:44:59.424Z,2.80
2018-03-31T18:49:52.273Z,2.80
2018-03-31T18:54:45.312Z,2.83
2018-03-31T18:59:38.304Z,2.47
2018-03-31T19:04:31.164Z,2.63
2018-03-31T19:09:24.784Z,2.80
2018-03-31T19:14:17.630Z,2.60
2018-03-31T19:19:10.692Z,2.97
2018-03-31T19:24:04.353Z,2.10
2018-03-31T19:28:57.461Z,1.93
2018-03-31T19:33:50.303Z,1.80
2018-03-31T19:38:43.268Z,1.60
2018-03-31T19:43:36.157Z,1.63
2018-03-31T19:48:29.159Z,1.37
2018-03-31T19:53:22.294Z,1.50
2018-03-31T19:58:15.295Z,1.20
2018-03-31T20:03:08.127Z,1.73
2018-03-31T20:08:00.960Z,1.80
2018-03-31T20:12:54.537Z,1.80
2018-03-31T20:17:48.157Z,1.80
2018-03-31T20:22:41.025Z,1.97
2018-03-31T20:27:33.857Z,2.20
2018-03-31T20:32:27.475Z,2.10
2018-03-31T20:37:20.342Z,2.13
2018-03-31T20:42:13.171Z,2.00
2018-03-31T20:47:06.829Z,2.47
2018-03-31T20:51:59.686Z,1.83
2018-03-31T20:56:52.603Z,2.17
2018-03-31T21:01:45.462Z,2.20
2018-03-31T21:06:39.080Z,2.07
2018-03-31T21:11:31.906Z,1.90
2018-03-31T21:16:25.539Z,1.60
2018-03-31T21:21:18.442Z,1.87
2018-03-31T21:26:11.288Z,1.97
2018-03-31T21:31:04.134Z,2.93
2018-03-31T21:35:56.971Z,3.20
2018-03-31T21:40:49.812Z,2.20
2018-03-31T21:45:42.657Z,2.00
2018-03-31T21:50:35.281Z,2.47
2018-03-31T21:55:29.264Z,2.40
2018-03-31T22:00:21.880Z,2.30
2018-03-31T22:05:14.722Z,2.50
2018-03-31T22:10:07.542Z,2.53
2018-03-31T22:15:06.737Z,2.47
2018-03-31T22:20:00.382Z,2.53
2018-03-31T22:24:53.238Z,2.63
2018-03-31T22:29:46.090Z,2.70
2018-03-31T22:34:38.962Z,2.80
2018-03-31T22:39:31.783Z,2.77
2018-03-31T22:44:25.033Z,2.63
2018-03-31T22:49:17.968Z,3.27
2018-03-31T22:54:10.832Z,3.17
2018-03-31T22:59:04.448Z,3.17
2018-03-31T23:03:57.519Z,3.10
2018-03-31T23:08:50.333Z,3.10
2018-03-31T23:13:43.978Z,3.13
2018-03-31T23:18:36.807Z,3.50
2018-03-31T23:23:29.762Z,3.40
2018-03-31T23:28:23.410Z,3.43
2018-03-31T23:33:16.284Z,4.00
2018-03-31T23:38:09.125Z,3.43
2018-03-31T23:43:01.978Z,3.40
2018-03-31T23:47:54.827Z,3.47
2018-03-31T23:52:48.541Z,3.27
2018-03-31T23:57:41.373Z,3.13
